Aviation Digital Data Service (ADDS)

Output produced by METARs form (1003 UTC 08 February 2016)
found at http://aviationweather.gov/adds/metars/
 
KBFD 080936Z 0810/0906 13004KT P6SM BKN120 
     FM081300 17008KT P6SM BKN090 OVC150 
     FM081900 14008KT P6SM VCSH OVC040 
     FM082200 14008KT 6SM -SN OVC025 
     FM090100 16005KT 2SM -SN BR OVC010